ETOU

Wiesbaden Army Airfield Airport

Wiesbaden, Germany
METAR ETOU 181256Z AUTO 00000KT 9999 CLR 03/M05 A3012 RMK AO2 SLP209 T00341053 $
Observed Flight Rules
Jan-18 @ 12:56 UTC (an hour ago) Visual Flight Rules
Visibility Clouds
10,000+ meters
  • Clear skies
Temperatures Readings
Current 3°C / 37°F
Dewpoint -5°C / 23°F
Humidity 56%
Altimeter 30.12" Hg
Pressure 1020.9 hPa
Elevation 141
METAR ETOU 181256Z AUTO 00000KT 9999 CLR 03/M05 A3012 RMK AO2 SLP209 T00341053 $
Observed Flight Rules
Jan-18 @ 12:56 UTC
(an hour ago)
VFR
Clouds
  • Clear skies
Temperature Dewpoint
3°C / 37°F -5°C / 23°F
Humidity Altimeter Pressure
56% 30.12" Hg 1020.9 hPa